GW3475 Weather Reports


time (UTC)temp
F
wind
direction
speed
knots
gust
knots
rain 1hr
in
rain 24hr
in
rain mn
in
humidity
%
barometer
mb
20260510045123 69 113 0.0 0.0 0.00 0.00 0.00 85 1012.8
20260510044619 69 113 0.0 0.0 0.00 0.00 0.00 85 1012.8
20260510044117 69 106 0.0 0.0 0.00 0.00 0.00 84 1012.8
20260510043613 69 108 0.0 0.0 0.00 0.00 0.00 84 1012.8
20260510043109 69 115 0.0 0.9 0.00 0.00 0.00 83 1012.9
20260510042608 69 100 0.0 0.0 0.00 0.00 0.00 83 1012.8
20260510042103 69 117 0.9 0.9 0.00 0.00 0.00 82 1012.8
20260510041600 70 128 0.9 0.9 0.00 0.00 0.00 81 1012.7
20260510041057 70 124 0.9 0.9 0.00 0.00 0.00 80 1012.7
20260510040554 70 113 0.0 0.9 0.00 0.00 0.00 79 1012.8
20260510040050 70 121 0.9 0.9 0.00 0.00 0.00 78 1012.9
20260510035546 70 121 0.0 0.0 0.00 0.00 0.00 77 1012.8
20260510035046 70 122 0.9 0.9 0.00 0.00 0.00 77 1012.8
20260510034544 70 118 0.0 0.0 0.00 0.00 0.00 76 1012.8
20260510034041 70 121 0.0 0.9 0.00 0.00 0.00 75 1012.8
20260510033537 69 112 0.0 0.0 0.00 0.00 0.00 74 1012.7
20260510033035 69 108 0.0 0.9 0.00 0.00 0.00 74 1012.7
20260510032531 69 107 0.0 0.9 0.00 0.00 0.00 74 1012.5
20260510032027 69 106 0.0 0.0 0.00 0.00 0.00 75 1012.4
20260510031522 68 106 0.0 0.0 0.00 0.00 0.00 77 1012.4
20260510031018 68 112 0.0 0.0 0.00 0.00 0.00 77 1012.4
20260510030514 68 92 0.0 0.0 0.00 0.00 0.00 74 1012.3
20260510030011 69 92 0.0 0.0 0.00 0.00 0.00 73 1012.2
20260510025508 69 92 0.0 0.0 0.00 0.00 0.00 73 1012.1
20260510025006 69 92 0.0 0.0 0.00 0.00 0.00 73 1012.1
20260510024503 69 92 0.0 0.0 0.00 0.00 0.00 73 1012.1
20260510023958 69 92 0.0 0.0 0.00 0.00 0.00 73 1012.0
20260510023454 69 92 0.0 0.0 0.00 0.00 0.00 73 1012.0
20260510022952 70 91 0.0 0.0 0.00 0.00 0.00 74 1011.7
20260510022451 70 92 0.0 0.0 0.00 0.00 0.00 73 1011.8
20260510021950 70 92 0.0 0.0 0.00 0.00 0.00 73 1011.8
20260510021448 70 92 0.0 0.0 0.00 0.00 0.00 72 1011.6
20260510020944 71 92 0.0 0.0 0.00 0.00 0.00 71 1011.8
20260510020439 71 91 0.0 0.0 0.00 0.00 0.00 71 1011.4
20260510015935 71 102 0.0 0.0 0.00 0.00 0.00 71 1011.6
20260510015431 71 102 0.0 0.0 0.00 0.00 0.00 70 1011.4
20260510014926 72 102 0.0 0.0 0.00 0.00 0.00 70 1011.3
20260510014424 72 102 0.0 0.0 0.00 0.00 0.00 68 1011.8
20260510013920 73 102 0.0 0.0 0.00 0.00 0.00 68 1011.4
20260510013415 73 102 0.0 0.0 0.00 0.00 0.00 68 1011.2
20260510012910 73 102 0.0 0.0 0.00 0.00 0.00 68 1011.2
20260510012406 74 102 0.0 0.0 0.00 0.00 0.00 67 1011.3
20260510011901 75 107 0.0 0.0 0.00 0.00 0.00 65 1011.2
20260510011356 75 108 0.0 0.0 0.00 0.00 0.00 64 1011.1
20260510010853 75 110 0.0 0.0 0.00 0.00 0.00 63 1011.1
20260510010350 75 112 0.0 0.0 0.00 0.00 0.00 63 1011.1
20260510005846 75 108 0.0 0.0 0.00 0.00 0.00 63 1010.7
20260510005343 75 113 0.0 0.0 0.00 0.00 0.00 63 1011.0
20260510004840 76 111 0.0 0.0 0.00 0.00 0.00 63 1010.9
20260510004338 76 112 0.0 0.9 0.00 0.00 0.00 62 1010.9
20260510003836 77 114 0.0 0.0 0.00 0.00 0.00 61 1010.7
20260510003332 77 106 0.0 0.0 0.00 0.00 0.00 61 1010.6
20260510002830 77 109 0.9 0.9 0.00 0.00 0.00 60 1010.5
20260510002328 77 131 0.0 0.9 0.00 0.00 0.00 60 1010.6
20260510001825 77 123 0.9 0.9 0.00 0.00 0.00 61 1010.5
20260510001323 77 105 0.0 0.0 0.00 0.00 0.00 61 1010.4
20260510000818 78 109 0.0 0.9 0.00 0.00 0.00 60 1010.4
20260510000318 78 117 0.9 0.9 0.00 0.00 0.00 61 1010.4
20260509235813 78 124 0.9 1.7 0.00 0.00 0.00 60 1010.1
20260509235310 78 109 0.0 0.0 0.00 0.00 0.00 61 1010.2
20260509234805 78 110 1.7 2.6 0.00 0.00 0.00 61 1010.2
20260509234302 78 150 1.7 1.7 0.00 0.00 0.00 60 1010.2
20260509233801 78 121 0.9 0.9 0.00 0.00 0.00 60 1010.3
20260509233258 78 94 0.0 0.0 0.00 0.00 0.00 60 1010.0
20260509232753 79 107 0.0 0.0 0.00 0.00 0.00 60 1010.1
20260509232251 79 106 0.0 0.0 0.00 0.00 0.00 59 1010.0
20260509231747 79 81 0.9 0.9 0.00 0.00 0.00 59 1010.2
20260509231244 79 97 0.0 0.9 0.00 0.00 0.00 59 1010.1
20260509230742 80 107 0.0 0.9 0.00 0.00 0.00 59 1010.1
20260509230239 80 131 0.0 0.9 0.00 0.00 0.00 60 1010.0
20260509225734 80 106 0.0 0.0 0.00 0.00 0.00 59 1010.1
20260509225230 80 128 1.7 1.7 0.00 0.00 0.00 60 1010.0
20260509224726 80 120 0.0 0.9 0.00 0.00 0.00 60 1009.9
20260509224223 80 40 0.9 1.7 0.00 0.00 0.00 58 1009.7
20260509223720 80 100 0.0 0.0 0.00 0.00 0.00 59 1009.8
20260509223217 80 80 0.0 0.0 0.00 0.00 0.00 57 1009.7
20260509222714 80 106 0.0 0.0 0.00 0.00 0.00 58 1009.8
20260509222209 80 150 1.7 1.7 0.00 0.00 0.00 59 1009.9
20260509221705 80 117 0.0 0.9 0.00 0.00 0.00 60 1009.6
20260509221201 80 125 0.9 0.9 0.00 0.00 0.00 57 1009.8
20260509220657 80 113 0.0 0.9 0.00 0.00 0.00 60 1009.6
20260509220148 80 117 0.9 1.7 0.00 0.00 0.00 61 1009.6
20260509215644 80 155 0.0 0.0 0.00 0.00 0.00 60 1009.7
20260509215141 80 109 0.9 1.7 0.00 0.00 0.00 61 1009.9
20260509214638 80 127 0.0 0.9 0.00 0.00 0.00 61 1009.6
20260509214135 80 119 0.0 0.9 0.00 0.00 0.00 61 1009.6
20260509213631 79 102 0.0 0.9 0.00 0.00 0.00 62 1009.7
20260509213127 79 105 0.0 0.0 0.00 0.00 0.00 60 1009.7
20260509212625 79 92 0.0 0.0 0.00 0.00 0.00 60 1009.8
20260509212122 78 115 0.0 0.9 0.00 0.00 0.00 61 1009.9
20260509211618 79 45 0.9 1.7 0.00 0.00 0.00 61 1009.7
20260509211114 79 148 0.0 0.9 0.00 0.00 0.00 60 1009.8
20260509210611 80 102 0.0 0.0 0.00 0.00 0.00 60 1009.6
20260509210108 80 112 0.0 0.9 0.00 0.00 0.00 59 1009.8
20260509205602 80 103 0.0 0.0 0.00 0.00 0.00 60 1010.0
20260509205057 80 129 0.9 1.7 0.00 0.00 0.00 57 1010.0
20260509204554 80 104 0.0 0.9 0.00 0.00 0.00 58 1010.2
20260509204051 80 140 0.0 0.9 0.00 0.00 0.00 57 1009.9
20260509203546 80 131 0.9 0.9 0.00 0.00 0.00 57 1010.1
20260509203045 80 56 0.9 1.7 0.00 0.00 0.00 56 1010.0
20260509202539 80 108 0.0 0.0 0.00 0.00 0.00 56 1010.4
20260509202035 81 115 0.0 0.9 0.00 0.00 0.00 55 1010.2
20260509201530 81 111 0.0 0.9 0.00 0.00 0.00 56 1010.4
20260509201027 81 57 1.7 1.7 0.00 0.00 0.00 54 1010.5
20260509200521 81 143 0.9 0.9 0.00 0.00 0.00 53 1010.5
20260509200018 81 127 0.9 0.9 0.00 0.00 0.00 52 1010.6
20260509195513 81 47 0.9 1.7 0.00 0.00 0.00 51 1010.8
20260509195008 82 43 2.6 4.3 0.00 0.00 0.00 49 1010.5
20260509194503 81 90 0.0 0.0 0.00 0.00 0.00 51 1010.5
20260509194000 81 63 0.9 1.7 0.00 0.00 0.00 51 1010.8
20260509193455 81 89 0.0 0.0 0.00 0.00 0.00 50 1010.9
20260509192951 81 106 0.9 0.9 0.00 0.00 0.00 53 1010.8
20260509192448 81 129 0.9 0.9 0.00 0.00 0.00 54 1010.8
20260509191943 81 156 0.9 1.7 0.00 0.00 0.00 53 1010.9
20260509191438 80 145 0.9 0.9 0.00 0.00 0.00 57 1010.7
20260509190934 80 157 0.9 1.7 0.00 0.00 0.00 57 1010.8
20260509190432 81 55 0.9 1.7 0.00 0.00 0.00 52 1011.0
20260509185930 81 75 0.9 0.9 0.00 0.00 0.00 53 1010.8
20260509185427 81 77 0.0 0.9 0.00 0.00 0.00 55 1010.9
20260509184923 81 63 0.9 0.9 0.00 0.00 0.00 55 1010.8
20260509184421 81 145 1.7 1.7 0.00 0.00 0.00 57 1010.8
20260509183917 81 109 0.9 0.9 0.00 0.00 0.00 54 1011.2
20260509183411 81 85 0.0 0.0 0.00 0.00 0.00 56 1011.0
20260509182908 80 139 0.9 1.7 0.00 0.00 0.00 59 1011.1
20260509182405 82 86 0.0 0.0 0.00 0.00 0.00 58 1011.6
20260509181903 81 33 0.0 0.9 0.00 0.00 0.00 56 1011.2
20260509181359 81 84 0.0 0.0 0.00 0.00 0.00 55 1011.3
20260509180856 81 110 0.0 0.0 0.00 0.00 0.00 57 1011.3
20260509180347 80 158 1.7 1.7 0.00 0.00 0.00 60 1011.3
20260509175844 79 80 0.9 1.7 0.00 0.00 0.00 64 1011.2
20260509175340 81 102 0.0 0.0 0.00 0.00 0.00 61 1011.4
20260509174836 81 109 0.0 0.0 0.00 0.00 0.00 61 1011.6
20260509174332 82 52 0.9 1.7 0.00 0.00 0.00 61 1011.2
20260509173828 82 108 0.0 0.0 0.00 0.00 0.00 57 1011.7
20260509173323 81 77 0.0 0.9 0.00 0.00 0.00 57 1011.7
20260509172820 81 72 0.9 0.9 0.00 0.00 0.00 60 1011.6
20260509172317 82 115 0.0 0.9 0.00 0.00 0.00 60 1011.2
20260509171813 80 72 0.0 0.9 0.00 0.00 0.00 62 1011.4
20260509171308 80 88 0.0 0.9 0.00 0.00 0.00 62 1011.7
20260509170805 80 64 0.0 0.0 0.00 0.00 0.00 62 1011.3
20260509170301 81 111 1.7 1.7 0.00 0.00 0.00 59 1011.6
20260509165800 80 35 1.7 1.7 0.00 0.00 0.00 60 1011.4
20260509165255 80 95 0.0 0.9 0.00 0.00 0.00 64 1011.3
20260509164751 81 152 0.9 1.7 0.00 0.00 0.00 62 1011.3
20260509164242 80 84 0.0 0.9 0.00 0.00 0.00 64 1011.3
20260509163744 80 102 0.0 0.9 0.00 0.00 0.00 63 1011.3
20260509163235 80 117 0.9 0.9 0.00 0.00 0.00 62 1011.2
20260509162734 81 98 0.0 0.0 0.00 0.00 0.00 64 1011.3
20260509162228 81 59 0.0 0.9 0.00 0.00 0.00 63 1011.3
20260509161723 81 82 0.9 0.9 0.00 0.00 0.00 64 1011.3
20260509161220 80 100 0.0 0.0 0.00 0.00 0.00 64 1011.6
20260509160715 80 78 0.9 1.7 0.00 0.00 0.00 64 1011.3
20260509160212 80 115 0.9 0.9 0.00 0.00 0.00 65 1011.6
20260509155707 78 96 0.0 0.0 0.00 0.00 0.00 65 1011.4
20260509155204 79 65 0.9 1.7 0.00 0.00 0.00 64 1011.2
20260509154700 80 29 2.6 2.6 0.00 0.00 0.00 63 1011.6
20260509154157 80 95 0.0 0.9 0.00 0.00 0.00 65 1011.6
20260509153654 80 48 0.0 1.7 0.00 0.00 0.00 65 1011.6
20260509153151 79 92 0.9 0.9 0.00 0.00 0.00 64 1011.4
20260509152646 79 106 0.0 0.9 0.00 0.00 0.00 67 1011.6
20260509152144 78 49 0.9 1.7 0.00 0.00 0.00 65 1011.3
20260509151640 78 80 0.0 0.0 0.00 0.00 0.00 66 1011.2
20260509151137 77 95 0.0 0.0 0.00 0.00 0.00 67 1011.3
20260509150636 78 114 0.0 0.9 0.00 0.00 0.00 69 1011.2
20260509150134 77 237 1.7 2.6 0.00 0.00 0.00 65 1011.2
20260509145630 76 97 0.0 0.0 0.00 0.00 0.00 72 1011.1
20260509145125 76 96 0.0 0.0 0.00 0.00 0.00 71 1011.2
20260509144622 76 80 0.9 0.9 0.00 0.00 0.00 69 1011.3
20260509144119 75 109 0.0 0.0 0.00 0.00 0.00 70 1011.3
20260509143616 74 84 0.0 0.0 0.00 0.00 0.00 72 1011.3
20260509143113 74 87 0.0 0.0 0.00 0.00 0.00 70 1011.8
20260509142608 74 81 0.0 0.9 0.00 0.00 0.00 70 1011.3
20260509142105 73 82 0.0 0.0 0.00 0.00 0.00 75 1011.6
20260509141601 73 161 0.0 0.9 0.00 0.00 0.00 74 1011.7
20260509141058 73 97 0.0 0.0 0.00 0.00 0.00 74 1011.7
20260509140555 72 101 0.0 0.0 0.00 0.00 0.00 76 1011.6
20260509140053 71 85 0.0 0.0 0.00 0.00 0.00 77 1011.7
20260509135549 70 76 0.9 0.9 0.00 0.00 0.00 77 1012.0
20260509135047 69 105 0.0 0.0 0.00 0.00 0.00 80 1011.9
20260509134544 69 166 0.9 0.9 0.00 0.00 0.00 80 1011.8
20260509134041 68 93 0.0 0.0 0.00 0.00 0.00 82 1011.9
20260509133537 66 83 0.0 0.0 0.00 0.00 0.00 86 1011.6
20260509133035 65 99 0.0 0.0 0.00 0.00 0.00 88 1011.7
20260509132533 64 89 0.0 0.0 0.00 0.00 0.00 88 1011.7
20260509132031 64 90 0.0 0.0 0.00 0.00 0.00 89 1011.6
20260509131522 63 90 0.0 0.0 0.00 0.00 0.00 90 1011.6
20260509131019 62 89 0.0 0.0 0.00 0.00 0.00 92 1011.6
20260509130514 62 89 0.0 0.0 0.00 0.00 0.00 93 1011.4
20260509130012 61 89 0.0 0.0 0.00 0.00 0.00 94 1011.4
20260509125508 61 89 0.0 0.0 0.00 0.00 0.00 95 1011.6
20260509125004 60 89 0.0 0.0 0.00 0.00 0.00 96 1011.6
20260509124501 60 89 0.0 0.0 0.00 0.00 0.00 96 1011.4
20260509123958 60 89 0.0 0.0 0.00 0.00 0.00 97 1011.6
20260509123456 59 89 0.0 0.0 0.00 0.00 0.00 97 1011.6
20260509122951 59 89 0.0 0.0 0.00 0.00 0.00 97 1011.7
20260509122449 59 89 0.0 0.0 0.00 0.00 0.00 97 1011.4
20260509121945 59 89 0.0 0.0 0.00 0.00 0.00 97 1011.4
20260509121442 58 90 0.0 0.0 0.00 0.00 0.00 97 1011.2
20260509120940 58 91 0.0 0.0 0.00 0.00 0.00 97 1011.4
20260509120438 58 91 0.0 0.0 0.00 0.00 0.00 97 1011.0
20260509115936 58 91 0.0 0.0 0.00 0.00 0.00 97 1011.0
20260509115433 58 91 0.0 0.0 0.00 0.00 0.00 97 1010.9
20260509114930 57 91 0.0 0.0 0.00 0.00 0.00 97 1010.8
20260509114429 58 91 0.0 0.0 0.00 0.00 0.00 97 1010.8
20260509113928 58 91 0.0 0.0 0.00 0.00 0.00 97 1010.6
20260509113425 58 91 0.0 0.0 0.00 0.00 0.00 97 1010.5
20260509112921 58 91 0.0 0.0 0.00 0.00 0.00 97 1010.7
20260509112419 58 92 0.0 0.0 0.00 0.00 0.00 96 1010.3
20260509111915 58 92 0.0 0.0 0.00 0.00 0.00 96 1010.4
20260509111412 58 98 0.0 0.0 0.00 0.00 0.00 96 1010.2
20260509110904 58 98 0.0 0.0 0.00 0.00 0.00 96 1010.2
20260509110400 58 99 0.0 0.0 0.00 0.00 0.00 96 1010.2
20260509105859 58 99 0.0 0.0 0.00 0.00 0.00 96 1010.1
20260509105356 58 98 0.0 0.0 0.00 0.00 0.00 96 1010.0
20260509104853 58 99 0.0 0.0 0.00 0.00 0.00 96 1009.9
20260509104349 58 104 0.0 0.0 0.00 0.00 0.00 96 1009.4
20260509103848 59 97 0.0 0.0 0.00 0.00 0.00 95 1009.7
20260509103344 59 106 0.0 0.0 0.00 0.00 0.00 95 1009.6
20260509102843 59 105 0.0 0.0 0.00 0.00 0.00 95 1009.5
20260509102340 59 104 0.0 0.0 0.00 0.00 0.00 95 1009.6
20260509101836 59 104 0.0 0.0 0.00 0.00 0.00 95 1009.7
20260509101332 59 104 0.0 0.0 0.00 0.00 0.00 94 1009.6
20260509100830 59 104 0.0 0.0 0.00 0.00 0.00 94 1009.7
20260509100327 59 105 0.0 0.0 0.00 0.00 0.00 94 1009.5
20260509095824 59 104 0.0 0.0 0.00 0.00 0.00 94 1009.6
20260509095321 59 105 0.0 0.0 0.00 0.00 0.00 94 1009.6
20260509094818 59 103 0.0 0.0 0.00 0.00 0.00 94 1009.3
20260509094315 59 98 0.0 0.0 0.00 0.00 0.00 94 1009.3
20260509093812 59 98 0.0 0.0 0.00 0.00 0.00 93 1009.5
20260509093309 59 89 0.0 0.0 0.00 0.00 0.00 93 1009.7
20260509092808 59 72 0.0 0.9 0.00 0.00 0.00 93 1009.6
20260509092306 59 83 0.0 0.0 0.00 0.00 0.00 92 1009.7
20260509091803 59 82 0.0 0.0 0.00 0.00 0.00 92 1010.0
20260509091300 60 83 0.0 0.0 0.00 0.00 0.00 91 1010.0
20260509090757 60 84 0.0 0.0 0.00 0.00 0.00 91 1009.7
20260509090254 60 86 0.0 0.0 0.00 0.00 0.00 90 1009.9
20260509085751 60 86 0.0 0.0 0.00 0.00 0.00 90 1010.0
20260509085249 61 87 0.0 0.0 0.00 0.00 0.00 90 1009.9
20260509084745 61 90 0.0 0.0 0.00 0.00 0.00 89 1009.8
20260509084242 61 77 0.9 0.9 0.00 0.00 0.00 89 1009.7
20260509083740 61 87 0.0 0.0 0.00 0.00 0.00 89 1009.8
20260509083236 62 78 0.0 0.0 0.00 0.00 0.00 88 1009.5
20260509082733 62 78 0.0 0.0 0.00 0.00 0.00 88 1009.5
20260509082230 62 74 0.0 0.9 0.00 0.00 0.00 88 1009.6
20260509081727 62 83 0.0 0.0 0.00 0.00 0.00 88 1009.3
20260509081224 62 71 0.0 0.9 0.00 0.00 0.00 88 1009.5
20260509080722 62 72 0.9 0.9 0.00 0.00 0.00 88 1009.5
20260509080219 62 73 0.0 0.9 0.00 0.00 0.00 87 1009.9
20260509075718 62 83 0.0 0.0 0.00 0.00 0.00 87 1009.8
20260509075215 62 88 0.0 0.9 0.00 0.00 0.00 87 1009.6
20260509074712 62 95 0.0 0.0 0.00 0.00 0.00 86 1009.8
20260509074209 63 118 0.0 0.0 0.00 0.00 0.00 85 1009.9
20260509073705 63 118 0.0 0.0 0.00 0.00 0.00 85 1009.9
20260509073202 64 215 2.6 2.6 0.00 0.00 0.00 84 1009.7
20260509072658 64 92 0.0 0.0 0.00 0.00 0.00 84 1009.6
20260509072155 64 247 2.6 4.3 0.00 0.00 0.00 83 1009.8
20260509071652 64 111 0.0 0.0 0.00 0.00 0.00 83 1009.8
20260509071149 64 226 3.5 5.2 0.00 0.00 0.00 83 1009.8
20260509070646 64 173 2.6 2.6 0.00 0.00 0.00 83 1009.9
20260509070142 63 224 4.3 5.2 0.00 0.00 0.00 84 1009.8
20260509065638 64 229 0.9 1.7 0.00 0.00 0.00 83 1009.7
20260509065134 64 142 0.9 0.9 0.00 0.00 0.00 83 1009.7
20260509064632 64 231 0.9 1.7 0.00 0.00 0.00 82 1010.0
20260509064130 64 255 1.7 2.6 0.00 0.00 0.00 82 1009.8
20260509063626 64 107 0.0 0.0 0.00 0.00 0.00 82 1009.5
20260509063123 64 126 1.7 2.6 0.00 0.00 0.00 82 1009.8
20260509062620 64 127 0.0 0.9 0.00 0.00 0.00 82 1009.7
20260509062117 64 197 1.7 2.6 0.00 0.00 0.00 82 1009.8
20260509061614 64 216 0.9 1.7 0.00 0.00 0.00 82 1009.6
20260509061111 64 115 0.0 0.0 0.00 0.00 0.00 81 1009.6
20260509060609 64 138 0.9 1.7 0.00 0.00 0.00 81 1009.6
20260509060104 64 144 0.0 0.9 0.00 0.00 0.00 80 1009.4
20260509055600 64 112 0.0 0.9 0.00 0.00 0.00 80 1009.7
20260509055056 64 137 0.0 0.9 0.00 0.00 0.00 80 1009.7
20260509054553 65 130 0.9 0.9 0.00 0.00 0.00 79 1009.8
20260509054051 65 152 0.9 1.7 0.00 0.00 0.00 79 1009.9
20260509053549 65 128 0.0 0.9 0.00 0.00 0.00 79 1010.1
20260509053046 65 114 0.0 0.0 0.00 0.00 0.00 79 1010.4
20260509052543 65 109 0.0 0.9 0.00 0.00 0.00 79 1010.4
20260509052041 65 114 0.0 0.0 0.00 0.00 0.00 79 1010.8
20260509051539 64 116 0.0 0.9 0.00 0.00 0.00 80 1010.8
20260509051036 64 75 0.0 0.9 0.00 0.00 0.00 81 1011.1
20260509050533 64 77 0.0 0.9 0.00 0.00 0.00 81 1010.9
20260509050029 64 75 0.0 0.0 0.00 0.00 0.00 81 1011.2
20260509045526 64 75 0.0 0.0 0.00 0.00 0.00 82 1011.4